CST,Max TemperatureF,Mean TemperatureF,Min TemperatureF,Max Dew PointF,MeanDew PointF,Min DewpointF,Max Humidity, Mean Humidity, Min Humidity, Max Sea Level PressureIn, Mean Sea Level PressureIn, Min Sea Level PressureIn, Max VisibilityMiles, Mean VisibilityMiles, Min VisibilityMiles, Max Wind SpeedMPH, Mean Wind SpeedMPH, Max Gust SpeedMPH,PrecipitationIn, CloudCover, Events, WindDirDegrees
2013-12-1,50,44,37,28,26,25,65,51,37,30.08,29.89,29.67,10,10,10,15,4,21,0.00,5,,271
2013-12-2,48,40,30,36,31,25,100,72,43,29.67,29.57,29.50,10,9,4,20,10,30,0.14,4,Rain-Snow,290
2013-12-3,28,17,5,28,13,1,100,91,79,29.87,29.73,29.53,10,4,1,20,13,25,2.64,6,Snow,10
2013-12-4,5,2,-2,1,-5,-11,92,77,66,30.06,29.95,29.86,10,3,0,25,19,36,2.13,4,Rain-Snow,292
2013-12-5,1,-4,-9,-9,-12,-17,77,67,60,30.21,30.11,30.04,10,10,10,20,14,33,0.00,0,Snow,292
2013-12-6,-4,-11,-18,-11,-17,-24,77,74,65,30.36,30.31,30.21,10,10,5,9,4,,0.00,1,Snow,279
2013-12-7,-9,-14,-20,-17,-21,-26,84,75,70,30.34,30.16,29.95,10,9,2,8,3,,0.08,2,Snow,92
2013-12-8,6,-4,-14,-2,-11,-20,84,71,48,30.00,29.88,29.81,10,9,2,24,7,34,0.04,4,Snow,283
2013-12-9,23,12,0,16,2,-8,93,64,41,29.99,29.87,29.73,10,9,2,34,17,46,0.41,4,Rain-Snow,277
2013-12-10,28,14,-2,21,11,-6,93,74,43,30.26,29.98,29.81,10,7,0,26,13,36,2.41,5,Rain-Snow,289
2013-12-11,32,16,0,10,5,-4,92,59,35,30.26,30.19,30.13,10,10,10,22,9,28,0.00,2,,261
2013-12-12,42,32,23,23,15,7,69,51,37,30.16,30.05,29.87,10,10,10,13,6,20,0.00,0,,237
2013-12-13,35,30,24,28,22,16,100,71,55,30.07,29.94,29.83,10,9,1,17,7,24,0.19,2,Snow,271
2013-12-14,41,36,32,27,23,21,75,59,49,30.12,30.06,30.00,10,10,10,23,15,32,0.00,5,,278
2013-12-15,48,44,41,25,23,19,53,42,37,30.00,29.92,29.89,10,10,10,24,16,30,0.00,3,,273
2013-12-16,46,38,30,28,25,19,87,65,34,30.16,30.03,29.90,10,10,10,22,11,34,0.00,4,,294
2013-12-17,55,39,23,25,21,18,93,56,24,30.24,30.05,29.80,10,10,10,24,11,30,0.00,0,,255
2013-12-18,57,42,28,27,21,18,93,44,23,29.81,29.76,29.71,10,10,10,24,13,31,0.00,0,,267
2013-12-19,28,13,-4,27,10,-8,100,91,78,30.02,29.88,29.75,10,4,0,25,13,29,1.33,6,Fog-Snow,11
2013-12-20,26,10,-7,16,1,-13,92,68,40,29.92,29.72,29.59,10,10,10,10,4,,0.00,0,,225
2013-12-21,21,16,10,16,9,1,93,75,46,29.89,29.70,29.56,10,9,2,15,4,21,0.42,4,Snow,342
2013-12-22,15,8,1,14,6,-2,93,85,73,30.24,30.06,29.90,10,9,1,14,8,16,1.08,6,Snow,296
2013-12-23,32,12,-7,25,3,-13,92,75,57,30.25,30.12,29.87,10,10,10,10,4,,0.00,4,Snow,182
2013-12-24,41,30,19,32,25,16,100,76,53,30.15,30.01,29.78,10,8,0,32,11,52,1.59,4,Rain-Snow,282
2013-12-25,37,32,28,18,15,10,64,50,33,30.28,30.17,30.00,10,10,10,25,18,40,0.00,2,,276
2013-12-26,46,42,37,27,21,10,56,46,27,30.16,30.09,29.98,10,10,10,24,15,33,0.00,1,,272
2013-12-27,55,48,42,28,25,19,53,42,26,30.12,30.02,29.82,10,10,10,24,13,32,0.00,0,,258
2013-12-28,55,30,5,27,11,0,93,59,23,30.34,30.05,29.76,10,10,4,29,15,40,0.14,3,Snow,298
2013-12-29,32,18,5,25,10,0,86,71,51,30.30,30.06,29.83,10,10,4,20,6,25,0.06,5,Snow,288
2013-12-30,32,28,23,27,24,19,93,78,60,30.11,29.99,29.84,10,10,2,26,15,33,0.11,7,Rain-Snow,294
2013-12-31,42,28,15,30,20,14,100,77,34,29.98,29.88,29.79,10,8,2,18,10,26,1.10,5,Rain-Snow,291